Main page
METAR-TAF:

METAR-TAF

Airports :

Diori Hamani International Airport

Niamey, Niger

latitude: 13-29N, longitude: 002-10E, elevation: 223 m

Current weather observation

The report was made 29 minutes ago, at 22:00 UTC
Wind 5 kt from the West
Temperature 30°C
Humidity 55%
Pressure 1012 hPa
Visibility 10 km or more
no clouds below 1500 m and no cumulonimbus

METAR: DRRN 162200Z 28005KT CAVOK 30/20 Q1012 NOSIG

Time: 23:29 (22:29 UTC)

Forecast

The report was made 5 hours and 29 minutes ago, at 17:00 UTC
Forecast valid from 16 at 18 UTC to 17 at 24 UTC
Wind 8 kt from the West/Southwest
Visibility 10 km or more
no clouds below 1500 m and no cumulonimbus
Probability 40%
from 17 at 16 UTC to 17 at 22 UTC
Wind 25 kt from variable directions
Visibility: 1200 m
Scattered clouds at a height of 3000 ft
Few clouds at a height of 4000 ft, Cumulonimbus.
Blowing dust, thunderstorm, light rain

TAF: DRRN 161700Z 1618/1724 24008KT CAVOK PROB40 1716/1722 VRB25KT 1200 BLDU -TSRA SCT030 FEW040CB

Weather observations and forecasts of more than 4000 airports (METAR and TAF reports).

The available stations are represented by yellow and red dots on the map.

Hover mouse over dot to see the name of the station.

Then click to see weather observations and forecasts.

To change the map : click on the green buttons with a black cross to zoom in, on the green button with a dash to zoom out, or on the green arrows for adjacent maps.


METAR-TAF: